sensor_id;sensor_type;location;lat;lon;timestamp;P1;durP1;ratioP1;P2;durP2;ratioP2
13866;SDS011;7003;46.982;15.248;2024-01-30T00:00:49;2.83;;;1.33;;
13866;SDS011;7003;46.982;15.248;2024-01-30T00:03:16;1.50;;;1.40;;
13866;SDS011;7003;46.982;15.248;2024-01-30T00:05:48;1.57;;;1.33;;
13866;SDS011;7003;46.982;15.248;2024-01-30T00:08:17;4.87;;;1.17;;
13866;SDS011;7003;46.982;15.248;2024-01-30T00:10:44;2.30;;;2.10;;
13866;SDS011;7003;46.982;15.248;2024-01-30T00:13:11;2.70;;;1.60;;
13866;SDS011;7003;46.982;15.248;2024-01-30T00:15:40;1.23;;;1.10;;
13866;SDS011;7003;46.982;15.248;2024-01-30T00:18:08;3.93;;;2.40;;
13866;SDS011;7003;46.982;15.248;2024-01-30T00:20:42;2.80;;;1.43;;
13866;SDS011;7003;46.982;15.248;2024-01-30T00:23:11;5.70;;;3.00;;
13866;SDS011;7003;46.982;15.248;2024-01-30T00:25:38;0.90;;;0.90;;
13866;SDS011;7003;46.982;15.248;2024-01-30T00:28:07;2.37;;;1.90;;
13866;SDS011;7003;46.982;15.248;2024-01-30T00:30:34;13.93;;;1.77;;
13866;SDS011;7003;46.982;15.248;2024-01-30T00:33:01;2.87;;;2.03;;
13866;SDS011;7003;46.982;15.248;2024-01-30T00:35:29;1.67;;;1.43;;
13866;SDS011;7003;46.982;15.248;2024-01-30T00:37:56;2.30;;;1.90;;
13866;SDS011;7003;46.982;15.248;2024-01-30T00:40:25;3.67;;;2.17;;
13866;SDS011;7003;46.982;15.248;2024-01-30T00:42:55;3.23;;;1.57;;
13866;SDS011;7003;46.982;15.248;2024-01-30T00:45:23;2.03;;;1.93;;
13866;SDS011;7003;46.982;15.248;2024-01-30T00:47:53;2.63;;;2.43;;
13866;SDS011;7003;46.982;15.248;2024-01-30T00:50:23;1.43;;;1.33;;
13866;SDS011;7003;46.982;15.248;2024-01-30T00:52:50;2.47;;;1.63;;
13866;SDS011;7003;46.982;15.248;2024-01-30T00:55:20;2.47;;;2.27;;
13866;SDS011;7003;46.982;15.248;2024-01-30T00:57:49;2.53;;;1.80;;
13866;SDS011;7003;46.982;15.248;2024-01-30T01:00:16;2.43;;;1.13;;
13866;SDS011;7003;46.982;15.248;2024-01-30T01:02:46;3.83;;;2.00;;
13866;SDS011;7003;46.982;15.248;2024-01-30T01:05:14;3.93;;;1.57;;
13866;SDS011;7003;46.982;15.248;2024-01-30T01:07:43;3.23;;;1.13;;
13866;SDS011;7003;46.982;15.248;2024-01-30T01:10:13;1.43;;;1.33;;
13866;SDS011;7003;46.982;15.248;2024-01-30T01:12:41;1.40;;;1.07;;
13866;SDS011;7003;46.982;15.248;2024-01-30T01:15:10;4.77;;;2.27;;
13866;SDS011;7003;46.982;15.248;2024-01-30T01:17:40;1.93;;;1.20;;
13866;SDS011;7003;46.982;15.248;2024-01-30T01:20:07;1.10;;;1.00;;
13866;SDS011;7003;46.982;15.248;2024-01-30T01:22:37;3.47;;;0.63;;
13866;SDS011;7003;46.982;15.248;2024-01-30T01:25:06;1.40;;;1.30;;
13866;SDS011;7003;46.982;15.248;2024-01-30T01:27:34;1.40;;;1.30;;
13866;SDS011;7003;46.982;15.248;2024-01-30T01:30:07;3.17;;;2.03;;
13866;SDS011;7003;46.982;15.248;2024-01-30T01:32:44;1.27;;;0.97;;
13866;SDS011;7003;46.982;15.248;2024-01-30T01:35:16;2.17;;;1.30;;
13866;SDS011;7003;46.982;15.248;2024-01-30T01:37:44;1.83;;;1.73;;
13866;SDS011;7003;46.982;15.248;2024-01-30T01:40:11;0.90;;;0.90;;
13866;SDS011;7003;46.982;15.248;2024-01-30T01:42:39;4.33;;;1.87;;
13866;SDS011;7003;46.982;15.248;2024-01-30T01:45:08;1.50;;;1.40;;
13866;SDS011;7003;46.982;15.248;2024-01-30T01:47:39;1.37;;;1.27;;
13866;SDS011;7003;46.982;15.248;2024-01-30T01:50:09;3.13;;;1.17;;
13866;SDS011;7003;46.982;15.248;2024-01-30T01:52:38;4.10;;;2.47;;
13866;SDS011;7003;46.982;15.248;2024-01-30T01:55:07;3.30;;;1.93;;
13866;SDS011;7003;46.982;15.248;2024-01-30T01:57:34;4.10;;;2.30;;
13866;SDS011;7003;46.982;15.248;2024-01-30T02:00:01;2.30;;;2.10;;
13866;SDS011;7003;46.982;15.248;2024-01-30T02:02:34;1.93;;;1.23;;
13866;SDS011;7003;46.982;15.248;2024-01-30T02:05:02;2.70;;;1.80;;
13866;SDS011;7003;46.982;15.248;2024-01-30T02:07:30;1.57;;;1.47;;
13866;SDS011;7003;46.982;15.248;2024-01-30T02:10:00;1.77;;;1.67;;
13866;SDS011;7003;46.982;15.248;2024-01-30T02:12:30;8.40;;;1.90;;
13866;SDS011;7003;46.982;15.248;2024-01-30T02:14:57;2.40;;;1.70;;
13866;SDS011;7003;46.982;15.248;2024-01-30T02:17:24;2.17;;;1.60;;
13866;SDS011;7003;46.982;15.248;2024-01-30T02:19:53;1.90;;;1.00;;
13866;SDS011;7003;46.982;15.248;2024-01-30T02:22:23;5.40;;;1.30;;
13866;SDS011;7003;46.982;15.248;2024-01-30T02:24:50;8.77;;;1.83;;
13866;SDS011;7003;46.982;15.248;2024-01-30T02:27:21;0.80;;;0.80;;
13866;SDS011;7003;46.982;15.248;2024-01-30T02:29:48;3.30;;;1.80;;
13866;SDS011;7003;46.982;15.248;2024-01-30T02:32:17;1.67;;;1.37;;
13866;SDS011;7003;46.982;15.248;2024-01-30T02:34:47;5.40;;;1.80;;
13866;SDS011;7003;46.982;15.248;2024-01-30T02:37:14;2.57;;;2.00;;
13866;SDS011;7003;46.982;15.248;2024-01-30T02:39:43;2.40;;;1.87;;
13866;SDS011;7003;46.982;15.248;2024-01-30T02:42:12;5.20;;;1.57;;
13866;SDS011;7003;46.982;15.248;2024-01-30T02:44:39;1.63;;;1.30;;
13866;SDS011;7003;46.982;15.248;2024-01-30T02:47:06;3.87;;;3.13;;
13866;SDS011;7003;46.982;15.248;2024-01-30T02:49:33;3.43;;;2.13;;
13866;SDS011;7003;46.982;15.248;2024-01-30T02:52:02;0.90;;;0.90;;
13866;SDS011;7003;46.982;15.248;2024-01-30T02:54:30;2.90;;;2.57;;
13866;SDS011;7003;46.982;15.248;2024-01-30T02:56:58;1.90;;;1.53;;
13866;SDS011;7003;46.982;15.248;2024-01-30T02:59:26;5.13;;;2.87;;
13866;SDS011;7003;46.982;15.248;2024-01-30T03:01:53;2.57;;;1.83;;
13866;SDS011;7003;46.982;15.248;2024-01-30T03:04:22;4.07;;;2.37;;
13866;SDS011;7003;46.982;15.248;2024-01-30T03:06:50;1.23;;;1.13;;
13866;SDS011;7003;46.982;15.248;2024-01-30T03:09:17;2.47;;;1.83;;
13866;SDS011;7003;46.982;15.248;2024-01-30T03:11:44;1.67;;;1.57;;
13866;SDS011;7003;46.982;15.248;2024-01-30T03:14:15;1.50;;;1.30;;
13866;SDS011;7003;46.982;15.248;2024-01-30T03:16:42;1.73;;;1.63;;
13866;SDS011;7003;46.982;15.248;2024-01-30T03:19:11;2.07;;;1.90;;
13866;SDS011;7003;46.982;15.248;2024-01-30T03:21:41;1.63;;;1.37;;
13866;SDS011;7003;46.982;15.248;2024-01-30T03:24:15;2.07;;;1.87;;
13866;SDS011;7003;46.982;15.248;2024-01-30T03:26:43;1.63;;;1.43;;
13866;SDS011;7003;46.982;15.248;2024-01-30T03:29:12;1.17;;;1.13;;
13866;SDS011;7003;46.982;15.248;2024-01-30T03:31:41;1.83;;;1.13;;
13866;SDS011;7003;46.982;15.248;2024-01-30T03:34:09;3.20;;;1.63;;
13866;SDS011;7003;46.982;15.248;2024-01-30T03:36:38;0.73;;;0.73;;
13866;SDS011;7003;46.982;15.248;2024-01-30T03:39:05;1.73;;;1.60;;
13866;SDS011;7003;46.982;15.248;2024-01-30T03:41:32;1.27;;;0.93;;
13866;SDS011;7003;46.982;15.248;2024-01-30T03:44:00;1.73;;;1.60;;
13866;SDS011;7003;46.982;15.248;2024-01-30T03:46:27;1.77;;;1.30;;
13866;SDS011;7003;46.982;15.248;2024-01-30T03:48:57;0.93;;;0.93;;
13866;SDS011;7003;46.982;15.248;2024-01-30T03:51:24;1.93;;;1.60;;
13866;SDS011;7003;46.982;15.248;2024-01-30T03:53:51;1.73;;;1.63;;
13866;SDS011;7003;46.982;15.248;2024-01-30T03:56:22;4.70;;;2.70;;
13866;SDS011;7003;46.982;15.248;2024-01-30T03:58:53;3.50;;;3.20;;
13866;SDS011;7003;46.982;15.248;2024-01-30T04:01:23;13.50;;;1.63;;
13866;SDS011;7003;46.982;15.248;2024-01-30T04:03:50;2.87;;;2.67;;
13866;SDS011;7003;46.982;15.248;2024-01-30T04:06:19;1.70;;;1.53;;
13866;SDS011;7003;46.982;15.248;2024-01-30T04:08:46;0.73;;;0.73;;
13866;SDS011;7003;46.982;15.248;2024-01-30T04:11:17;1.63;;;1.53;;
13866;SDS011;7003;46.982;15.248;2024-01-30T04:13:48;1.23;;;1.17;;
13866;SDS011;7003;46.982;15.248;2024-01-30T04:16:19;1.20;;;1.10;;
13866;SDS011;7003;46.982;15.248;2024-01-30T04:18:51;1.03;;;0.87;;
13866;SDS011;7003;46.982;15.248;2024-01-30T04:21:22;0.77;;;0.77;;
13866;SDS011;7003;46.982;15.248;2024-01-30T04:23:50;4.07;;;1.50;;
13866;SDS011;7003;46.982;15.248;2024-01-30T04:26:17;3.20;;;2.67;;
13866;SDS011;7003;46.982;15.248;2024-01-30T04:28:47;1.87;;;1.57;;
13866;SDS011;7003;46.982;15.248;2024-01-30T04:31:16;0.90;;;0.90;;
13866;SDS011;7003;46.982;15.248;2024-01-30T04:33:43;1.03;;;1.00;;
13866;SDS011;7003;46.982;15.248;2024-01-30T04:36:10;2.23;;;0.93;;
13866;SDS011;7003;46.982;15.248;2024-01-30T04:38:39;3.97;;;2.07;;
13866;SDS011;7003;46.982;15.248;2024-01-30T04:41:08;2.70;;;1.23;;
13866;SDS011;7003;46.982;15.248;2024-01-30T04:43:36;1.47;;;1.10;;
13866;SDS011;7003;46.982;15.248;2024-01-30T04:46:03;2.23;;;1.87;;
13866;SDS011;7003;46.982;15.248;2024-01-30T04:48:31;1.53;;;1.37;;
13866;SDS011;7003;46.982;15.248;2024-01-30T04:50:58;2.50;;;2.10;;
13866;SDS011;7003;46.982;15.248;2024-01-30T04:53:30;1.07;;;1.07;;
13866;SDS011;7003;46.982;15.248;2024-01-30T04:55:59;2.60;;;1.13;;
13866;SDS011;7003;46.982;15.248;2024-01-30T04:58:26;1.87;;;1.23;;
13866;SDS011;7003;46.982;15.248;2024-01-30T05:00:53;1.27;;;1.17;;
13866;SDS011;7003;46.982;15.248;2024-01-30T05:03:22;3.10;;;1.87;;
13866;SDS011;7003;46.982;15.248;2024-01-30T05:05:52;3.27;;;3.07;;
13866;SDS011;7003;46.982;15.248;2024-01-30T05:08:19;1.77;;;1.67;;
13866;SDS011;7003;46.982;15.248;2024-01-30T05:10:48;1.77;;;1.07;;
13866;SDS011;7003;46.982;15.248;2024-01-30T05:13:19;1.77;;;0.90;;
13866;SDS011;7003;46.982;15.248;2024-01-30T05:15:48;1.17;;;1.17;;
13866;SDS011;7003;46.982;15.248;2024-01-30T05:18:18;0.77;;;0.73;;
13866;SDS011;7003;46.982;15.248;2024-01-30T05:20:45;1.17;;;0.83;;
13866;SDS011;7003;46.982;15.248;2024-01-30T05:23:14;1.33;;;1.23;;
13866;SDS011;7003;46.982;15.248;2024-01-30T05:25:41;1.63;;;1.10;;
13866;SDS011;7003;46.982;15.248;2024-01-30T05:28:09;1.50;;;1.33;;
13866;SDS011;7003;46.982;15.248;2024-01-30T05:30:40;1.53;;;1.43;;
13866;SDS011;7003;46.982;15.248;2024-01-30T05:33:07;0.90;;;0.90;;
13866;SDS011;7003;46.982;15.248;2024-01-30T05:35:35;0.50;;;0.50;;
13866;SDS011;7003;46.982;15.248;2024-01-30T05:38:04;5.43;;;1.03;;
13866;SDS011;7003;46.982;15.248;2024-01-30T05:40:31;1.70;;;1.60;;
13866;SDS011;7003;46.982;15.248;2024-01-30T05:42:58;0.67;;;0.67;;
13866;SDS011;7003;46.982;15.248;2024-01-30T05:45:26;0.70;;;0.70;;
13866;SDS011;7003;46.982;15.248;2024-01-30T05:47:56;2.23;;;1.33;;
13866;SDS011;7003;46.982;15.248;2024-01-30T05:50:23;3.13;;;1.77;;
13866;SDS011;7003;46.982;15.248;2024-01-30T05:52:51;0.80;;;0.70;;
13866;SDS011;7003;46.982;15.248;2024-01-30T05:55:18;0.67;;;0.67;;
13866;SDS011;7003;46.982;15.248;2024-01-30T05:57:45;0.93;;;0.93;;
13866;SDS011;7003;46.982;15.248;2024-01-30T06:00:13;2.53;;;0.73;;
13866;SDS011;7003;46.982;15.248;2024-01-30T06:02:41;1.73;;;1.53;;
13866;SDS011;7003;46.982;15.248;2024-01-30T06:05:09;3.00;;;2.80;;
13866;SDS011;7003;46.982;15.248;2024-01-30T06:07:40;1.60;;;1.37;;
13866;SDS011;7003;46.982;15.248;2024-01-30T06:10:08;1.67;;;1.40;;
13866;SDS011;7003;46.982;15.248;2024-01-30T06:12:38;0.67;;;0.67;;
13866;SDS011;7003;46.982;15.248;2024-01-30T06:15:06;1.83;;;1.70;;
13866;SDS011;7003;46.982;15.248;2024-01-30T06:17:34;1.10;;;1.03;;
13866;SDS011;7003;46.982;15.248;2024-01-30T06:20:04;5.50;;;1.87;;
13866;SDS011;7003;46.982;15.248;2024-01-30T06:22:37;4.40;;;1.87;;
13866;SDS011;7003;46.982;15.248;2024-01-30T06:25:04;1.97;;;1.87;;
13866;SDS011;7003;46.982;15.248;2024-01-30T06:27:33;1.17;;;1.07;;
13866;SDS011;7003;46.982;15.248;2024-01-30T06:30:03;0.90;;;0.90;;
13866;SDS011;7003;46.982;15.248;2024-01-30T06:32:35;1.67;;;1.23;;
13866;SDS011;7003;46.982;15.248;2024-01-30T06:35:05;0.63;;;0.63;;
13866;SDS011;7003;46.982;15.248;2024-01-30T06:37:37;0.73;;;0.73;;
13866;SDS011;7003;46.982;15.248;2024-01-30T06:40:08;1.83;;;1.67;;
13866;SDS011;7003;46.982;15.248;2024-01-30T06:42:37;1.10;;;1.10;;
13866;SDS011;7003;46.982;15.248;2024-01-30T06:45:05;0.83;;;0.83;;
13866;SDS011;7003;46.982;15.248;2024-01-30T06:47:33;0.70;;;0.67;;
13866;SDS011;7003;46.982;15.248;2024-01-30T06:50:03;1.50;;;1.00;;
13866;SDS011;7003;46.982;15.248;2024-01-30T06:52:32;0.63;;;0.63;;
13866;SDS011;7003;46.982;15.248;2024-01-30T06:55:01;1.03;;;1.00;;
13866;SDS011;7003;46.982;15.248;2024-01-30T06:57:29;0.93;;;0.93;;
13866;SDS011;7003;46.982;15.248;2024-01-30T07:00:00;1.73;;;1.63;;
13866;SDS011;7003;46.982;15.248;2024-01-30T07:02:28;2.63;;;0.67;;
13866;SDS011;7003;46.982;15.248;2024-01-30T07:04:56;2.10;;;1.77;;
13866;SDS011;7003;46.982;15.248;2024-01-30T07:07:25;0.70;;;0.70;;
13866;SDS011;7003;46.982;15.248;2024-01-30T07:09:54;1.70;;;1.60;;
13866;SDS011;7003;46.982;15.248;2024-01-30T07:12:24;2.67;;;1.90;;
13866;SDS011;7003;46.982;15.248;2024-01-30T07:14:52;2.63;;;1.73;;
13866;SDS011;7003;46.982;15.248;2024-01-30T07:17:21;5.17;;;1.87;;
13866;SDS011;7003;46.982;15.248;2024-01-30T07:19:49;2.47;;;2.27;;
13866;SDS011;7003;46.982;15.248;2024-01-30T07:22:19;1.93;;;1.83;;
13866;SDS011;7003;46.982;15.248;2024-01-30T07:24:47;2.33;;;1.97;;
13866;SDS011;7003;46.982;15.248;2024-01-30T07:27:15;1.80;;;1.70;;
13866;SDS011;7003;46.982;15.248;2024-01-30T07:29:45;5.30;;;3.07;;
13866;SDS011;7003;46.982;15.248;2024-01-30T07:32:13;3.67;;;2.27;;
13866;SDS011;7003;46.982;15.248;2024-01-30T07:34:41;1.53;;;1.43;;
13866;SDS011;7003;46.982;15.248;2024-01-30T07:37:08;2.63;;;2.33;;
13866;SDS011;7003;46.982;15.248;2024-01-30T07:39:38;3.80;;;2.30;;
13866;SDS011;7003;46.982;15.248;2024-01-30T07:42:06;8.30;;;2.90;;
13866;SDS011;7003;46.982;15.248;2024-01-30T07:44:34;1.13;;;1.07;;
13866;SDS011;7003;46.982;15.248;2024-01-30T07:47:03;1.03;;;1.03;;
13866;SDS011;7003;46.982;15.248;2024-01-30T07:49:32;3.73;;;1.90;;
13866;SDS011;7003;46.982;15.248;2024-01-30T07:52:00;1.93;;;1.83;;
13866;SDS011;7003;46.982;15.248;2024-01-30T07:54:30;4.20;;;1.70;;
13866;SDS011;7003;46.982;15.248;2024-01-30T07:57:02;1.63;;;1.53;;
13866;SDS011;7003;46.982;15.248;2024-01-30T07:59:29;3.87;;;2.53;;
13866;SDS011;7003;46.982;15.248;2024-01-30T08:01:56;1.97;;;1.50;;
13866;SDS011;7003;46.982;15.248;2024-01-30T08:04:25;3.97;;;2.43;;
13866;SDS011;7003;46.982;15.248;2024-01-30T08:06:53;3.87;;;2.33;;
13866;SDS011;7003;46.982;15.248;2024-01-30T08:09:23;1.50;;;1.37;;
13866;SDS011;7003;46.982;15.248;2024-01-30T08:11:51;2.03;;;1.93;;
13866;SDS011;7003;46.982;15.248;2024-01-30T08:14:18;2.33;;;2.13;;
13866;SDS011;7003;46.982;15.248;2024-01-30T08:16:49;3.10;;;2.67;;
13866;SDS011;7003;46.982;15.248;2024-01-30T08:19:16;2.97;;;2.43;;
13866;SDS011;7003;46.982;15.248;2024-01-30T08:21:47;10.67;;;1.90;;
13866;SDS011;7003;46.982;15.248;2024-01-30T08:24:18;8.60;;;3.07;;
13866;SDS011;7003;46.982;15.248;2024-01-30T08:26:45;4.63;;;2.47;;
13866;SDS011;7003;46.982;15.248;2024-01-30T08:29:13;2.17;;;1.97;;
13866;SDS011;7003;46.982;15.248;2024-01-30T08:31:40;2.63;;;2.03;;
13866;SDS011;7003;46.982;15.248;2024-01-30T08:34:10;3.23;;;2.27;;
13866;SDS011;7003;46.982;15.248;2024-01-30T08:36:40;2.70;;;2.50;;
13866;SDS011;7003;46.982;15.248;2024-01-30T08:39:09;3.83;;;2.73;;
13866;SDS011;7003;46.982;15.248;2024-01-30T08:41:39;4.73;;;2.87;;
13866;SDS011;7003;46.982;15.248;2024-01-30T08:44:08;5.37;;;3.13;;
13866;SDS011;7003;46.982;15.248;2024-01-30T08:46:39;6.20;;;3.27;;
13866;SDS011;7003;46.982;15.248;2024-01-30T08:49:08;4.13;;;3.50;;
13866;SDS011;7003;46.982;15.248;2024-01-30T08:51:36;5.50;;;4.43;;
13866;SDS011;7003;46.982;15.248;2024-01-30T08:54:03;6.57;;;4.07;;
13866;SDS011;7003;46.982;15.248;2024-01-30T08:56:32;4.43;;;3.17;;
13866;SDS011;7003;46.982;15.248;2024-01-30T08:59:02;3.30;;;2.17;;
13866;SDS011;7003;46.982;15.248;2024-01-30T09:01:32;6.13;;;3.23;;
13866;SDS011;7003;46.982;15.248;2024-01-30T09:04:01;5.77;;;4.17;;
13866;SDS011;7003;46.982;15.248;2024-01-30T09:06:31;8.77;;;3.77;;
13866;SDS011;7003;46.982;15.248;2024-01-30T09:08:58;8.03;;;4.37;;
13866;SDS011;7003;46.982;15.248;2024-01-30T09:11:26;3.93;;;3.13;;
13866;SDS011;7003;46.982;15.248;2024-01-30T09:13:57;5.00;;;3.37;;
13866;SDS011;7003;46.982;15.248;2024-01-30T09:16:25;9.17;;;4.27;;
13866;SDS011;7003;46.982;15.248;2024-01-30T09:18:52;6.37;;;4.00;;
13866;SDS011;7003;46.982;15.248;2024-01-30T09:21:19;3.77;;;3.33;;
13866;SDS011;7003;46.982;15.248;2024-01-30T09:23:47;8.17;;;3.53;;
13866;SDS011;7003;46.982;15.248;2024-01-30T09:26:17;5.70;;;3.40;;
13866;SDS011;7003;46.982;15.248;2024-01-30T09:28:46;12.43;;;4.70;;
13866;SDS011;7003;46.982;15.248;2024-01-30T09:31:15;8.77;;;5.40;;
13866;SDS011;7003;46.982;15.248;2024-01-30T09:33:46;7.70;;;4.27;;
13866;SDS011;7003;46.982;15.248;2024-01-30T09:36:13;13.73;;;5.90;;
13866;SDS011;7003;46.982;15.248;2024-01-30T09:38:44;4.73;;;3.90;;
13866;SDS011;7003;46.982;15.248;2024-01-30T09:41:11;6.40;;;4.57;;
13866;SDS011;7003;46.982;15.248;2024-01-30T09:43:41;8.27;;;5.07;;
13866;SDS011;7003;46.982;15.248;2024-01-30T09:46:16;8.40;;;5.67;;
13866;SDS011;7003;46.982;15.248;2024-01-30T09:48:46;5.93;;;4.03;;
13866;SDS011;7003;46.982;15.248;2024-01-30T09:51:17;5.82;;;4.53;;
13866;SDS011;7003;46.982;15.248;2024-01-30T09:53:45;5.50;;;5.00;;
13866;SDS011;7003;46.982;15.248;2024-01-30T09:56:15;4.90;;;4.38;;
13866;SDS011;7003;46.982;15.248;2024-01-30T09:58:43;5.53;;;4.50;;
13866;SDS011;7003;46.982;15.248;2024-01-30T10:01:13;10.07;;;4.43;;
13866;SDS011;7003;46.982;15.248;2024-01-30T10:03:45;7.35;;;3.95;;
13866;SDS011;7003;46.982;15.248;2024-01-30T10:06:13;8.38;;;4.18;;
13866;SDS011;7003;46.982;15.248;2024-01-30T10:08:45;6.03;;;4.03;;
13866;SDS011;7003;46.982;15.248;2024-01-30T10:11:13;4.47;;;3.30;;
13866;SDS011;7003;46.982;15.248;2024-01-30T10:13:40;4.90;;;3.33;;
13866;SDS011;7003;46.982;15.248;2024-01-30T10:16:07;5.95;;;5.22;;
13866;SDS011;7003;46.982;15.248;2024-01-30T10:18:34;7.18;;;3.40;;
13866;SDS011;7003;46.982;15.248;2024-01-30T10:21:06;8.05;;;5.05;;
13866;SDS011;7003;46.982;15.248;2024-01-30T10:23:34;7.07;;;4.15;;
13866;SDS011;7003;46.982;15.248;2024-01-30T10:26:02;5.75;;;4.05;;
13866;SDS011;7003;46.982;15.248;2024-01-30T10:28:33;7.22;;;5.43;;
13866;SDS011;7003;46.982;15.248;2024-01-30T10:31:01;4.57;;;4.03;;
13866;SDS011;7003;46.982;15.248;2024-01-30T10:33:30;6.30;;;4.30;;
13866;SDS011;7003;46.982;15.248;2024-01-30T10:36:00;6.50;;;4.97;;
13866;SDS011;7003;46.982;15.248;2024-01-30T10:38:31;14.30;;;4.80;;
13866;SDS011;7003;46.982;15.248;2024-01-30T10:41:02;6.78;;;4.15;;
13866;SDS011;7003;46.982;15.248;2024-01-30T10:43:32;10.02;;;5.30;;
13866;SDS011;7003;46.982;15.248;2024-01-30T10:46:05;10.25;;;3.92;;
13866;SDS011;7003;46.982;15.248;2024-01-30T10:48:41;9.93;;;4.38;;
13866;SDS011;7003;46.982;15.248;2024-01-30T10:51:11;8.32;;;4.55;;
13866;SDS011;7003;46.982;15.248;2024-01-30T10:53:44;6.00;;;4.95;;
13866;SDS011;7003;46.982;15.248;2024-01-30T10:56:14;5.53;;;3.90;;
13866;SDS011;7003;46.982;15.248;2024-01-30T10:58:43;7.53;;;5.57;;
13866;SDS011;7003;46.982;15.248;2024-01-30T11:01:11;10.10;;;5.47;;
13866;SDS011;7003;46.982;15.248;2024-01-30T11:03:39;18.00;;;5.60;;
13866;SDS011;7003;46.982;15.248;2024-01-30T11:06:10;5.65;;;5.03;;
13866;SDS011;7003;46.982;15.248;2024-01-30T11:09:01;4.78;;;4.35;;
13866;SDS011;7003;46.982;15.248;2024-01-30T11:11:29;5.45;;;4.88;;
13866;SDS011;7003;46.982;15.248;2024-01-30T11:14:00;21.88;;;4.82;;
13866;SDS011;7003;46.982;15.248;2024-01-30T11:16:31;6.47;;;3.63;;
13866;SDS011;7003;46.982;15.248;2024-01-30T11:19:00;8.35;;;4.55;;
13866;SDS011;7003;46.982;15.248;2024-01-30T11:21:27;5.93;;;4.63;;
13866;SDS011;7003;46.982;15.248;2024-01-30T11:23:55;9.70;;;5.30;;
13866;SDS011;7003;46.982;15.248;2024-01-30T11:26:29;7.47;;;4.70;;
13866;SDS011;7003;46.982;15.248;2024-01-30T11:28:58;9.30;;;4.60;;
13866;SDS011;7003;46.982;15.248;2024-01-30T11:31:27;6.95;;;5.32;;
13866;SDS011;7003;46.982;15.248;2024-01-30T11:33:55;7.80;;;4.75;;
13866;SDS011;7003;46.982;15.248;2024-01-30T11:36:25;6.68;;;4.43;;
13866;SDS011;7003;46.982;15.248;2024-01-30T11:38:54;7.68;;;5.10;;
13866;SDS011;7003;46.982;15.248;2024-01-30T11:41:22;5.93;;;5.30;;
13866;SDS011;7003;46.982;15.248;2024-01-30T11:43:55;5.97;;;5.05;;
13866;SDS011;7003;46.982;15.248;2024-01-30T11:46:25;7.45;;;4.63;;
13866;SDS011;7003;46.982;15.248;2024-01-30T11:48:52;5.10;;;4.60;;
13866;SDS011;7003;46.982;15.248;2024-01-30T11:51:22;9.20;;;4.85;;
13866;SDS011;7003;46.982;15.248;2024-01-30T11:53:50;8.73;;;5.70;;
13866;SDS011;7003;46.982;15.248;2024-01-30T11:56:20;7.07;;;5.28;;
13866;SDS011;7003;46.982;15.248;2024-01-30T11:58:47;8.88;;;5.60;;
13866;SDS011;7003;46.982;15.248;2024-01-30T12:01:17;5.28;;;4.72;;
13866;SDS011;7003;46.982;15.248;2024-01-30T12:03:49;5.03;;;4.40;;
13866;SDS011;7003;46.982;15.248;2024-01-30T12:06:19;6.95;;;5.35;;
13866;SDS011;7003;46.982;15.248;2024-01-30T12:08:55;6.32;;;5.20;;
13866;SDS011;7003;46.982;15.248;2024-01-30T12:11:23;6.40;;;4.38;;
13866;SDS011;7003;46.982;15.248;2024-01-30T12:13:51;7.45;;;6.45;;
13866;SDS011;7003;46.982;15.248;2024-01-30T12:16:20;6.03;;;4.55;;
13866;SDS011;7003;46.982;15.248;2024-01-30T12:18:48;6.25;;;4.93;;
13866;SDS011;7003;46.982;15.248;2024-01-30T12:21:16;6.60;;;4.88;;
13866;SDS011;7003;46.982;15.248;2024-01-30T12:23:46;7.15;;;5.32;;
13866;SDS011;7003;46.982;15.248;2024-01-30T12:26:14;6.80;;;5.32;;
13866;SDS011;7003;46.982;15.248;2024-01-30T12:28:49;9.25;;;5.22;;
13866;SDS011;7003;46.982;15.248;2024-01-30T12:31:17;7.78;;;5.30;;
13866;SDS011;7003;46.982;15.248;2024-01-30T12:33:50;6.18;;;5.22;;
13866;SDS011;7003;46.982;15.248;2024-01-30T12:36:20;4.95;;;4.32;;
13866;SDS011;7003;46.982;15.248;2024-01-30T12:38:50;8.20;;;6.10;;
13866;SDS011;7003;46.982;15.248;2024-01-30T12:41:19;8.63;;;5.25;;
13866;SDS011;7003;46.982;15.248;2024-01-30T12:43:46;7.47;;;5.20;;
13866;SDS011;7003;46.982;15.248;2024-01-30T12:46:16;8.45;;;5.78;;
13866;SDS011;7003;46.982;15.248;2024-01-30T12:48:46;6.57;;;5.38;;
13866;SDS011;7003;46.982;15.248;2024-01-30T12:51:17;7.65;;;5.45;;
13866;SDS011;7003;46.982;15.248;2024-01-30T12:53:48;5.53;;;4.95;;
13866;SDS011;7003;46.982;15.248;2024-01-30T12:56:25;7.63;;;5.45;;
13866;SDS011;7003;46.982;15.248;2024-01-30T12:58:52;7.00;;;5.65;;
13866;SDS011;7003;46.982;15.248;2024-01-30T13:01:20;10.63;;;6.00;;
13866;SDS011;7003;46.982;15.248;2024-01-30T13:03:48;7.38;;;4.63;;
13866;SDS011;7003;46.982;15.248;2024-01-30T13:06:19;5.95;;;4.57;;
13866;SDS011;7003;46.982;15.248;2024-01-30T13:08:46;10.70;;;5.78;;
13866;SDS011;7003;46.982;15.248;2024-01-30T13:11:14;5.47;;;4.95;;
13866;SDS011;7003;46.982;15.248;2024-01-30T13:13:41;6.07;;;5.47;;
13866;SDS011;7003;46.982;15.248;2024-01-30T13:16:11;7.40;;;5.18;;
13866;SDS011;7003;46.982;15.248;2024-01-30T13:18:41;11.35;;;6.30;;
13866;SDS011;7003;46.982;15.248;2024-01-30T13:21:08;8.27;;;5.93;;
13866;SDS011;7003;46.982;15.248;2024-01-30T13:23:40;12.95;;;6.43;;
13866;SDS011;7003;46.982;15.248;2024-01-30T13:26:09;6.95;;;6.25;;
13866;SDS011;7003;46.982;15.248;2024-01-30T13:28:37;6.72;;;6.03;;
13866;SDS011;7003;46.982;15.248;2024-01-30T13:31:07;13.52;;;5.38;;
13866;SDS011;7003;46.982;15.248;2024-01-30T13:33:35;6.45;;;5.78;;
13866;SDS011;7003;46.982;15.248;2024-01-30T13:36:02;8.27;;;6.00;;
13866;SDS011;7003;46.982;15.248;2024-01-30T13:38:30;7.70;;;6.72;;
13866;SDS011;7003;46.982;15.248;2024-01-30T13:41:00;8.85;;;6.70;;
13866;SDS011;7003;46.982;15.248;2024-01-30T13:43:30;9.43;;;6.35;;
13866;SDS011;7003;46.982;15.248;2024-01-30T13:45:58;8.18;;;6.45;;
13866;SDS011;7003;46.982;15.248;2024-01-30T13:48:25;10.15;;;6.03;;
13866;SDS011;7003;46.982;15.248;2024-01-30T13:50:55;8.88;;;7.03;;
13866;SDS011;7003;46.982;15.248;2024-01-30T13:53:25;11.38;;;7.03;;
13866;SDS011;7003;46.982;15.248;2024-01-30T13:55:53;7.40;;;6.65;;
13866;SDS011;7003;46.982;15.248;2024-01-30T13:58:24;8.45;;;5.78;;
13866;SDS011;7003;46.982;15.248;2024-01-30T14:00:52;9.18;;;6.25;;
13866;SDS011;7003;46.982;15.248;2024-01-30T14:03:22;10.85;;;7.28;;
13866;SDS011;7003;46.982;15.248;2024-01-30T14:05:53;8.20;;;6.45;;
13866;SDS011;7003;46.982;15.248;2024-01-30T14:08:21;11.00;;;7.35;;
13866;SDS011;7003;46.982;15.248;2024-01-30T14:10:55;11.27;;;6.63;;
13866;SDS011;7003;46.982;15.248;2024-01-30T14:13:22;8.65;;;6.38;;
13866;SDS011;7003;46.982;15.248;2024-01-30T14:15:52;6.50;;;5.47;;
13866;SDS011;7003;46.982;15.248;2024-01-30T14:18:19;7.32;;;6.18;;
13866;SDS011;7003;46.982;15.248;2024-01-30T14:20:49;9.20;;;6.45;;
13866;SDS011;7003;46.982;15.248;2024-01-30T14:23:18;12.80;;;6.95;;
13866;SDS011;7003;46.982;15.248;2024-01-30T14:25:47;13.02;;;6.00;;
13866;SDS011;7003;46.982;15.248;2024-01-30T14:28:14;8.07;;;6.32;;
13866;SDS011;7003;46.982;15.248;2024-01-30T14:30:42;9.88;;;7.00;;
13866;SDS011;7003;46.982;15.248;2024-01-30T14:33:11;9.57;;;6.55;;
13866;SDS011;7003;46.982;15.248;2024-01-30T14:35:38;10.13;;;6.18;;
13866;SDS011;7003;46.982;15.248;2024-01-30T14:38:06;10.10;;;6.53;;
13866;SDS011;7003;46.982;15.248;2024-01-30T14:40:34;8.50;;;7.28;;
13866;SDS011;7003;46.982;15.248;2024-01-30T14:43:01;12.57;;;8.18;;
13866;SDS011;7003;46.982;15.248;2024-01-30T14:45:29;11.48;;;7.43;;
13866;SDS011;7003;46.982;15.248;2024-01-30T14:48:00;6.13;;;5.60;;
13866;SDS011;7003;46.982;15.248;2024-01-30T14:50:29;11.88;;;6.25;;
13866;SDS011;7003;46.982;15.248;2024-01-30T14:52:57;7.57;;;5.85;;
13866;SDS011;7003;46.982;15.248;2024-01-30T14:55:24;13.15;;;9.25;;